sensor_id;sensor_type;location;lat;lon;timestamp;P1;durP1;ratioP1;P2;durP2;ratioP2
22894;SDS011;11614;52.494;6.976;2023-01-26T00:01:46;110.60;;;32.67;;
22894;SDS011;11614;52.494;6.976;2023-01-26T00:04:12;91.70;;;25.93;;
22894;SDS011;11614;52.494;6.976;2023-01-26T00:06:38;89.87;;;24.37;;
22894;SDS011;11614;52.494;6.976;2023-01-26T00:09:04;84.53;;;25.37;;
22894;SDS011;11614;52.494;6.976;2023-01-26T00:11:30;109.00;;;30.87;;
22894;SDS011;11614;52.494;6.976;2023-01-26T00:13:56;58.33;;;15.03;;
22894;SDS011;11614;52.494;6.976;2023-01-26T00:16:23;56.03;;;15.80;;
22894;SDS011;11614;52.494;6.976;2023-01-26T00:18:49;79.33;;;20.77;;
22894;SDS011;11614;52.494;6.976;2023-01-26T00:21:16;49.90;;;14.97;;
22894;SDS011;11614;52.494;6.976;2023-01-26T00:23:42;89.47;;;23.80;;
22894;SDS011;11614;52.494;6.976;2023-01-26T00:26:09;77.53;;;21.60;;
22894;SDS011;11614;52.494;6.976;2023-01-26T00:28:35;93.43;;;26.70;;
22894;SDS011;11614;52.494;6.976;2023-01-26T00:31:05;71.40;;;21.10;;
22894;SDS011;11614;52.494;6.976;2023-01-26T00:33:32;64.13;;;16.17;;
22894;SDS011;11614;52.494;6.976;2023-01-26T00:35:57;75.67;;;22.73;;
22894;SDS011;11614;52.494;6.976;2023-01-26T00:38:23;60.03;;;16.60;;
22894;SDS011;11614;52.494;6.976;2023-01-26T00:40:49;74.57;;;23.33;;
22894;SDS011;11614;52.494;6.976;2023-01-26T00:43:16;106.13;;;28.73;;
22894;SDS011;11614;52.494;6.976;2023-01-26T00:45:42;76.87;;;20.23;;
22894;SDS011;11614;52.494;6.976;2023-01-26T00:48:08;93.83;;;24.97;;
22894;SDS011;11614;52.494;6.976;2023-01-26T00:50:34;43.43;;;11.23;;
22894;SDS011;11614;52.494;6.976;2023-01-26T00:53:00;62.77;;;17.40;;
22894;SDS011;11614;52.494;6.976;2023-01-26T00:55:26;73.63;;;20.03;;
22894;SDS011;11614;52.494;6.976;2023-01-26T00:57:57;76.37;;;21.33;;
22894;SDS011;11614;52.494;6.976;2023-01-26T01:00:23;52.33;;;13.40;;
22894;SDS011;11614;52.494;6.976;2023-01-26T01:02:49;69.63;;;18.17;;
22894;SDS011;11614;52.494;6.976;2023-01-26T01:05:15;66.13;;;18.77;;
22894;SDS011;11614;52.494;6.976;2023-01-26T01:07:41;118.17;;;33.87;;
22894;SDS011;11614;52.494;6.976;2023-01-26T01:10:07;70.00;;;18.77;;
22894;SDS011;11614;52.494;6.976;2023-01-26T01:12:33;76.27;;;22.40;;
22894;SDS011;11614;52.494;6.976;2023-01-26T01:14:59;66.93;;;19.77;;
22894;SDS011;11614;52.494;6.976;2023-01-26T01:17:25;69.43;;;18.83;;
22894;SDS011;11614;52.494;6.976;2023-01-26T01:19:51;77.60;;;21.77;;
22894;SDS011;11614;52.494;6.976;2023-01-26T01:22:17;71.20;;;16.80;;
22894;SDS011;11614;52.494;6.976;2023-01-26T01:24:43;79.07;;;22.73;;
22894;SDS011;11614;52.494;6.976;2023-01-26T01:27:09;62.87;;;17.30;;
22894;SDS011;11614;52.494;6.976;2023-01-26T01:29:35;55.63;;;18.37;;
22894;SDS011;11614;52.494;6.976;2023-01-26T01:32:01;106.27;;;31.70;;
22894;SDS011;11614;52.494;6.976;2023-01-26T01:34:27;61.27;;;16.60;;
22894;SDS011;11614;52.494;6.976;2023-01-26T01:36:53;85.70;;;24.10;;
22894;SDS011;11614;52.494;6.976;2023-01-26T01:39:19;77.73;;;23.53;;
22894;SDS011;11614;52.494;6.976;2023-01-26T01:41:45;49.03;;;16.07;;
22894;SDS011;11614;52.494;6.976;2023-01-26T01:44:15;58.17;;;14.03;;
22894;SDS011;11614;52.494;6.976;2023-01-26T01:46:44;72.60;;;20.83;;
22894;SDS011;11614;52.494;6.976;2023-01-26T01:49:14;60.17;;;14.90;;
22894;SDS011;11614;52.494;6.976;2023-01-26T01:51:43;75.63;;;18.33;;
22894;SDS011;11614;52.494;6.976;2023-01-26T01:54:12;58.27;;;16.83;;
22894;SDS011;11614;52.494;6.976;2023-01-26T01:56:39;61.20;;;17.50;;
22894;SDS011;11614;52.494;6.976;2023-01-26T01:59:07;65.07;;;20.30;;
22894;SDS011;11614;52.494;6.976;2023-01-26T02:01:36;58.70;;;16.83;;
22894;SDS011;11614;52.494;6.976;2023-01-26T02:04:03;52.07;;;11.40;;
22894;SDS011;11614;52.494;6.976;2023-01-26T02:08:59;63.00;;;17.20;;
22894;SDS011;11614;52.494;6.976;2023-01-26T02:13:57;79.77;;;22.80;;
22894;SDS011;11614;52.494;6.976;2023-01-26T02:16:24;49.30;;;15.97;;
22894;SDS011;11614;52.494;6.976;2023-01-26T02:18:50;72.37;;;20.87;;
22894;SDS011;11614;52.494;6.976;2023-01-26T02:21:17;70.70;;;21.57;;
22894;SDS011;11614;52.494;6.976;2023-01-26T02:26:54;59.07;;;16.90;;
22894;SDS011;11614;52.494;6.976;2023-01-26T02:29:02;71.07;;;21.07;;
22894;SDS011;11614;52.494;6.976;2023-01-26T02:31:28;75.30;;;22.00;;
22894;SDS011;11614;52.494;6.976;2023-01-26T02:33:54;73.10;;;20.57;;
22894;SDS011;11614;52.494;6.976;2023-01-26T02:36:24;65.73;;;19.57;;
22894;SDS011;11614;52.494;6.976;2023-01-26T02:39:20;51.03;;;15.33;;
22894;SDS011;11614;52.494;6.976;2023-01-26T02:41:47;48.50;;;15.60;;
22894;SDS011;11614;52.494;6.976;2023-01-26T02:44:33;71.83;;;19.30;;
22894;SDS011;11614;52.494;6.976;2023-01-26T02:46:59;78.70;;;23.43;;
22894;SDS011;11614;52.494;6.976;2023-01-26T02:49:25;88.70;;;24.10;;
22894;SDS011;11614;52.494;6.976;2023-01-26T02:52:09;66.73;;;19.10;;
22894;SDS011;11614;52.494;6.976;2023-01-26T02:54:35;52.83;;;14.67;;
22894;SDS011;11614;52.494;6.976;2023-01-26T02:57:20;63.33;;;17.70;;
22894;SDS011;11614;52.494;6.976;2023-01-26T02:59:46;53.73;;;16.33;;
22894;SDS011;11614;52.494;6.976;2023-01-26T03:02:12;62.20;;;16.23;;
22894;SDS011;11614;52.494;6.976;2023-01-26T03:04:38;36.77;;;10.20;;
22894;SDS011;11614;52.494;6.976;2023-01-26T03:07:04;49.47;;;14.27;;
22894;SDS011;11614;52.494;6.976;2023-01-26T03:09:30;60.93;;;18.43;;
22894;SDS011;11614;52.494;6.976;2023-01-26T03:11:56;63.83;;;17.13;;
22894;SDS011;11614;52.494;6.976;2023-01-26T03:14:22;58.23;;;16.47;;
22894;SDS011;11614;52.494;6.976;2023-01-26T03:16:48;57.87;;;17.77;;
22894;SDS011;11614;52.494;6.976;2023-01-26T03:19:14;62.33;;;18.33;;
22894;SDS011;11614;52.494;6.976;2023-01-26T03:21:59;42.20;;;12.30;;
22894;SDS011;11614;52.494;6.976;2023-01-26T03:24:44;65.03;;;17.30;;
22894;SDS011;11614;52.494;6.976;2023-01-26T03:27:32;51.87;;;14.27;;
22894;SDS011;11614;52.494;6.976;2023-01-26T03:29:58;48.10;;;12.20;;
22894;SDS011;11614;52.494;6.976;2023-01-26T03:32:24;56.60;;;16.27;;
22894;SDS011;11614;52.494;6.976;2023-01-26T03:34:50;54.03;;;15.03;;
22894;SDS011;11614;52.494;6.976;2023-01-26T03:37:17;31.20;;;10.90;;
22894;SDS011;11614;52.494;6.976;2023-01-26T03:39:47;50.00;;;14.50;;
22894;SDS011;11614;52.494;6.976;2023-01-26T03:42:32;53.07;;;14.63;;
22894;SDS011;11614;52.494;6.976;2023-01-26T03:45:16;57.17;;;16.97;;
22894;SDS011;11614;52.494;6.976;2023-01-26T03:48:02;38.33;;;12.43;;
22894;SDS011;11614;52.494;6.976;2023-01-26T03:50:46;44.97;;;12.30;;
22894;SDS011;11614;52.494;6.976;2023-01-26T03:53:31;35.43;;;8.37;;
22894;SDS011;11614;52.494;6.976;2023-01-26T03:56:16;43.90;;;12.37;;
22894;SDS011;11614;52.494;6.976;2023-01-26T03:58:42;44.67;;;13.07;;
22894;SDS011;11614;52.494;6.976;2023-01-26T04:01:08;54.80;;;16.07;;
22894;SDS011;11614;52.494;6.976;2023-01-26T04:03:35;29.20;;;8.00;;
22894;SDS011;11614;52.494;6.976;2023-01-26T04:06:19;50.03;;;14.87;;
22894;SDS011;11614;52.494;6.976;2023-01-26T04:09:04;54.13;;;15.33;;
22894;SDS011;11614;52.494;6.976;2023-01-26T04:11:30;54.47;;;15.87;;
22894;SDS011;11614;52.494;6.976;2023-01-26T04:13:56;44.03;;;11.90;;
22894;SDS011;11614;52.494;6.976;2023-01-26T04:16:41;39.70;;;11.67;;
22894;SDS011;11614;52.494;6.976;2023-01-26T04:19:25;51.53;;;14.40;;
22894;SDS011;11614;52.494;6.976;2023-01-26T04:22:10;38.57;;;12.03;;
22894;SDS011;11614;52.494;6.976;2023-01-26T04:24:38;41.63;;;11.97;;
22894;SDS011;11614;52.494;6.976;2023-01-26T04:27:04;46.73;;;13.13;;
22894;SDS011;11614;52.494;6.976;2023-01-26T04:29:30;29.47;;;8.70;;
22894;SDS011;11614;52.494;6.976;2023-01-26T04:31:58;33.93;;;8.77;;
22894;SDS011;11614;52.494;6.976;2023-01-26T04:34:24;47.87;;;13.03;;
22894;SDS011;11614;52.494;6.976;2023-01-26T04:36:50;23.47;;;6.43;;
22894;SDS011;11614;52.494;6.976;2023-01-26T04:39:16;45.30;;;11.87;;
22894;SDS011;11614;52.494;6.976;2023-01-26T04:44:32;21.83;;;5.07;;
22894;SDS011;11614;52.494;6.976;2023-01-26T04:46:58;27.70;;;8.60;;
22894;SDS011;11614;52.494;6.976;2023-01-26T04:49:24;21.07;;;4.63;;
22894;SDS011;11614;52.494;6.976;2023-01-26T04:51:50;27.37;;;8.23;;
22894;SDS011;11614;52.494;6.976;2023-01-26T04:54:16;26.47;;;7.80;;
22894;SDS011;11614;52.494;6.976;2023-01-26T04:56:42;32.43;;;8.77;;
22894;SDS011;11614;52.494;6.976;2023-01-26T04:59:08;27.73;;;9.47;;
22894;SDS011;11614;52.494;6.976;2023-01-26T05:01:34;13.57;;;3.40;;
22894;SDS011;11614;52.494;6.976;2023-01-26T05:04:00;21.67;;;7.17;;
22894;SDS011;11614;52.494;6.976;2023-01-26T05:06:27;17.13;;;5.17;;
22894;SDS011;11614;52.494;6.976;2023-01-26T05:08:53;20.10;;;7.23;;
22894;SDS011;11614;52.494;6.976;2023-01-26T05:11:19;32.83;;;10.20;;
22894;SDS011;11614;52.494;6.976;2023-01-26T05:13:45;26.20;;;7.67;;
22894;SDS011;11614;52.494;6.976;2023-01-26T05:16:11;23.97;;;7.07;;
22894;SDS011;11614;52.494;6.976;2023-01-26T05:18:38;18.73;;;5.73;;
22894;SDS011;11614;52.494;6.976;2023-01-26T05:21:04;16.47;;;5.90;;
22894;SDS011;11614;52.494;6.976;2023-01-26T05:23:30;23.47;;;7.50;;
22894;SDS011;11614;52.494;6.976;2023-01-26T05:25:56;12.77;;;3.90;;
22894;SDS011;11614;52.494;6.976;2023-01-26T05:28:22;13.10;;;4.00;;
22894;SDS011;11614;52.494;6.976;2023-01-26T05:30:48;22.07;;;6.73;;
22894;SDS011;11614;52.494;6.976;2023-01-26T05:33:14;20.70;;;6.73;;
22894;SDS011;11614;52.494;6.976;2023-01-26T05:35:40;10.93;;;4.23;;
22894;SDS011;11614;52.494;6.976;2023-01-26T05:38:06;20.97;;;5.10;;
22894;SDS011;11614;52.494;6.976;2023-01-26T05:40:32;15.53;;;4.87;;
22894;SDS011;11614;52.494;6.976;2023-01-26T05:42:58;9.70;;;3.90;;
22894;SDS011;11614;52.494;6.976;2023-01-26T05:45:24;17.03;;;4.90;;
22894;SDS011;11614;52.494;6.976;2023-01-26T05:47:50;17.60;;;6.20;;
22894;SDS011;11614;52.494;6.976;2023-01-26T05:50:16;18.63;;;5.90;;
22894;SDS011;11614;52.494;6.976;2023-01-26T05:52:42;20.00;;;6.03;;
22894;SDS011;11614;52.494;6.976;2023-01-26T05:55:12;16.20;;;5.23;;
22894;SDS011;11614;52.494;6.976;2023-01-26T05:57:38;15.10;;;4.70;;
22894;SDS011;11614;52.494;6.976;2023-01-26T06:00:04;21.30;;;6.13;;
22894;SDS011;11614;52.494;6.976;2023-01-26T06:02:31;17.63;;;5.70;;
22894;SDS011;11614;52.494;6.976;2023-01-26T06:04:57;9.10;;;3.63;;
22894;SDS011;11614;52.494;6.976;2023-01-26T06:07:23;19.43;;;5.43;;
22894;SDS011;11614;52.494;6.976;2023-01-26T06:09:50;17.00;;;5.00;;
22894;SDS011;11614;52.494;6.976;2023-01-26T06:12:17;16.60;;;5.37;;
22894;SDS011;11614;52.494;6.976;2023-01-26T06:14:43;14.07;;;4.53;;
22894;SDS011;11614;52.494;6.976;2023-01-26T06:17:09;21.67;;;5.83;;
22894;SDS011;11614;52.494;6.976;2023-01-26T06:19:35;14.63;;;4.93;;
22894;SDS011;11614;52.494;6.976;2023-01-26T06:22:02;17.93;;;5.97;;
22894;SDS011;11614;52.494;6.976;2023-01-26T06:24:28;17.60;;;5.17;;
22894;SDS011;11614;52.494;6.976;2023-01-26T06:26:54;21.83;;;6.47;;
22894;SDS011;11614;52.494;6.976;2023-01-26T06:29:20;23.07;;;5.90;;
22894;SDS011;11614;52.494;6.976;2023-01-26T06:31:46;17.73;;;5.47;;
22894;SDS011;11614;52.494;6.976;2023-01-26T06:34:12;15.90;;;5.67;;
22894;SDS011;11614;52.494;6.976;2023-01-26T06:36:38;20.83;;;5.37;;
22894;SDS011;11614;52.494;6.976;2023-01-26T06:39:05;15.20;;;4.37;;
22894;SDS011;11614;52.494;6.976;2023-01-26T06:41:31;15.63;;;5.27;;
22894;SDS011;11614;52.494;6.976;2023-01-26T06:43:57;12.97;;;4.73;;
22894;SDS011;11614;52.494;6.976;2023-01-26T06:46:23;20.13;;;5.97;;
22894;SDS011;11614;52.494;6.976;2023-01-26T06:48:49;20.00;;;6.47;;
22894;SDS011;11614;52.494;6.976;2023-01-26T06:53:42;15.13;;;4.83;;
22894;SDS011;11614;52.494;6.976;2023-01-26T06:56:08;24.00;;;7.03;;
22894;SDS011;11614;52.494;6.976;2023-01-26T06:58:34;13.60;;;4.50;;
22894;SDS011;11614;52.494;6.976;2023-01-26T07:01:00;13.93;;;4.80;;
22894;SDS011;11614;52.494;6.976;2023-01-26T07:03:26;19.57;;;6.00;;
22894;SDS011;11614;52.494;6.976;2023-01-26T07:05:52;19.67;;;5.83;;
22894;SDS011;11614;52.494;6.976;2023-01-26T07:08:18;15.43;;;5.47;;
22894;SDS011;11614;52.494;6.976;2023-01-26T07:10:44;19.63;;;6.87;;
22894;SDS011;11614;52.494;6.976;2023-01-26T07:13:10;18.07;;;6.40;;
22894;SDS011;11614;52.494;6.976;2023-01-26T07:15:36;6.67;;;2.40;;
22894;SDS011;11614;52.494;6.976;2023-01-26T07:18:02;18.53;;;5.23;;
22894;SDS011;11614;52.494;6.976;2023-01-26T07:20:28;12.73;;;4.53;;
22894;SDS011;11614;52.494;6.976;2023-01-26T07:22:54;12.13;;;3.63;;
22894;SDS011;11614;52.494;6.976;2023-01-26T07:25:20;21.10;;;6.50;;
22894;SDS011;11614;52.494;6.976;2023-01-26T07:27:46;21.40;;;5.53;;
22894;SDS011;11614;52.494;6.976;2023-01-26T07:30:12;15.07;;;5.43;;
22894;SDS011;11614;52.494;6.976;2023-01-26T07:32:38;21.63;;;7.07;;
22894;SDS011;11614;52.494;6.976;2023-01-26T07:35:05;17.53;;;5.90;;
22894;SDS011;11614;52.494;6.976;2023-01-26T07:37:32;16.27;;;5.57;;
22894;SDS011;11614;52.494;6.976;2023-01-26T07:39:58;22.60;;;7.60;;
22894;SDS011;11614;52.494;6.976;2023-01-26T07:42:24;25.40;;;6.77;;
22894;SDS011;11614;52.494;6.976;2023-01-26T07:44:50;15.77;;;5.90;;
22894;SDS011;11614;52.494;6.976;2023-01-26T07:47:16;21.33;;;6.93;;
22894;SDS011;11614;52.494;6.976;2023-01-26T07:49:44;20.77;;;6.40;;
22894;SDS011;11614;52.494;6.976;2023-01-26T07:52:11;24.53;;;7.27;;
22894;SDS011;11614;52.494;6.976;2023-01-26T07:54:37;23.67;;;6.97;;
22894;SDS011;11614;52.494;6.976;2023-01-26T07:57:03;20.67;;;5.77;;
22894;SDS011;11614;52.494;6.976;2023-01-26T07:59:32;20.00;;;6.50;;
22894;SDS011;11614;52.494;6.976;2023-01-26T08:01:59;20.50;;;5.93;;
22894;SDS011;11614;52.494;6.976;2023-01-26T08:04:25;16.97;;;5.73;;
22894;SDS011;11614;52.494;6.976;2023-01-26T08:06:51;19.27;;;6.43;;
22894;SDS011;11614;52.494;6.976;2023-01-26T08:09:17;22.20;;;6.57;;
22894;SDS011;11614;52.494;6.976;2023-01-26T08:11:43;20.43;;;6.00;;
22894;SDS011;11614;52.494;6.976;2023-01-26T08:14:09;23.03;;;6.93;;
22894;SDS011;11614;52.494;6.976;2023-01-26T08:16:35;22.43;;;6.67;;
22894;SDS011;11614;52.494;6.976;2023-01-26T08:19:01;18.10;;;5.10;;
22894;SDS011;11614;52.494;6.976;2023-01-26T08:21:27;26.17;;;7.10;;
22894;SDS011;11614;52.494;6.976;2023-01-26T08:23:54;16.47;;;4.33;;
22894;SDS011;11614;52.494;6.976;2023-01-26T08:26:20;24.33;;;6.97;;
22894;SDS011;11614;52.494;6.976;2023-01-26T08:28:46;30.97;;;8.47;;
22894;SDS011;11614;52.494;6.976;2023-01-26T08:31:16;27.80;;;6.97;;
22894;SDS011;11614;52.494;6.976;2023-01-26T08:33:44;26.13;;;8.07;;
22894;SDS011;11614;52.494;6.976;2023-01-26T08:36:11;29.47;;;7.50;;
22894;SDS011;11614;52.494;6.976;2023-01-26T08:38:37;30.83;;;8.40;;
22894;SDS011;11614;52.494;6.976;2023-01-26T08:41:03;35.00;;;9.20;;
22894;SDS011;11614;52.494;6.976;2023-01-26T08:43:30;29.40;;;8.43;;
22894;SDS011;11614;52.494;6.976;2023-01-26T08:45:56;31.17;;;8.00;;
22894;SDS011;11614;52.494;6.976;2023-01-26T08:48:22;24.27;;;6.37;;
22894;SDS011;11614;52.494;6.976;2023-01-26T08:50:52;32.53;;;9.20;;
22894;SDS011;11614;52.494;6.976;2023-01-26T08:53:18;31.97;;;9.73;;
22894;SDS011;11614;52.494;6.976;2023-01-26T08:55:44;40.27;;;10.50;;
22894;SDS011;11614;52.494;6.976;2023-01-26T08:58:10;29.23;;;8.30;;
22894;SDS011;11614;52.494;6.976;2023-01-26T09:00:36;35.40;;;11.37;;
22894;SDS011;11614;52.494;6.976;2023-01-26T09:03:03;39.40;;;10.40;;
22894;SDS011;11614;52.494;6.976;2023-01-26T09:05:33;34.97;;;10.57;;
22894;SDS011;11614;52.494;6.976;2023-01-26T09:07:59;34.27;;;10.37;;
22894;SDS011;11614;52.494;6.976;2023-01-26T09:10:25;31.17;;;9.30;;
22894;SDS011;11614;52.494;6.976;2023-01-26T09:12:52;32.13;;;8.67;;
22894;SDS011;11614;52.494;6.976;2023-01-26T09:15:18;34.10;;;9.43;;
22894;SDS011;11614;52.494;6.976;2023-01-26T09:17:47;40.13;;;11.03;;
22894;SDS011;11614;52.494;6.976;2023-01-26T09:20:13;29.90;;;8.83;;
22894;SDS011;11614;52.494;6.976;2023-01-26T09:22:39;38.77;;;10.50;;
22894;SDS011;11614;52.494;6.976;2023-01-26T09:25:06;41.10;;;11.43;;
22894;SDS011;11614;52.494;6.976;2023-01-26T09:27:32;30.67;;;10.07;;
22894;SDS011;11614;52.494;6.976;2023-01-26T09:29:58;33.43;;;10.03;;
22894;SDS011;11614;52.494;6.976;2023-01-26T09:32:24;40.00;;;12.03;;
22894;SDS011;11614;52.494;6.976;2023-01-26T09:34:50;30.10;;;10.27;;
22894;SDS011;11614;52.494;6.976;2023-01-26T09:37:16;34.70;;;10.90;;
22894;SDS011;11614;52.494;6.976;2023-01-26T09:39:42;34.73;;;10.33;;
22894;SDS011;11614;52.494;6.976;2023-01-26T09:47:27;31.63;;;7.77;;
22894;SDS011;11614;52.494;6.976;2023-01-26T09:50:03;30.80;;;10.80;;
22894;SDS011;11614;52.494;6.976;2023-01-26T09:52:37;40.00;;;11.13;;
22894;SDS011;11614;52.494;6.976;2023-01-26T09:55:04;27.80;;;8.30;;
22894;SDS011;11614;52.494;6.976;2023-01-26T09:57:35;29.10;;;9.17;;
22894;SDS011;11614;52.494;6.976;2023-01-26T10:00:06;39.07;;;11.17;;
22894;SDS011;11614;52.494;6.976;2023-01-26T10:05:52;27.73;;;8.63;;
22894;SDS011;11614;52.494;6.976;2023-01-26T10:07:52;36.10;;;10.70;;
22894;SDS011;11614;52.494;6.976;2023-01-26T10:10:19;40.80;;;12.13;;
22894;SDS011;11614;52.494;6.976;2023-01-26T10:12:46;37.47;;;11.10;;
22894;SDS011;11614;52.494;6.976;2023-01-26T10:17:42;35.53;;;10.67;;
22894;SDS011;11614;52.494;6.976;2023-01-26T10:25:17;40.80;;;11.00;;
22894;SDS011;11614;52.494;6.976;2023-01-26T10:27:43;39.07;;;11.07;;
22894;SDS011;11614;52.494;6.976;2023-01-26T10:30:16;21.50;;;8.07;;
22894;SDS011;11614;52.494;6.976;2023-01-26T10:32:43;36.70;;;11.03;;
22894;SDS011;11614;52.494;6.976;2023-01-26T10:35:17;47.93;;;12.33;;
22894;SDS011;11614;52.494;6.976;2023-01-26T10:37:43;44.47;;;12.47;;
22894;SDS011;11614;52.494;6.976;2023-01-26T10:40:10;40.60;;;10.80;;
22894;SDS011;11614;52.494;6.976;2023-01-26T10:42:37;27.57;;;6.33;;
22894;SDS011;11614;52.494;6.976;2023-01-26T10:45:05;17.80;;;5.73;;
22894;SDS011;11614;52.494;6.976;2023-01-26T10:47:32;46.70;;;10.87;;
22894;SDS011;11614;52.494;6.976;2023-01-26T10:52:47;21.97;;;6.73;;
22894;SDS011;11614;52.494;6.976;2023-01-26T10:55:20;23.53;;;6.17;;
22894;SDS011;11614;52.494;6.976;2023-01-26T10:57:46;39.53;;;12.40;;
22894;SDS011;11614;52.494;6.976;2023-01-26T11:02:47;27.53;;;8.63;;
22894;SDS011;11614;52.494;6.976;2023-01-26T11:05:17;27.53;;;8.57;;
22894;SDS011;11614;52.494;6.976;2023-01-26T11:07:45;30.67;;;9.03;;
22894;SDS011;11614;52.494;6.976;2023-01-26T11:10:25;27.60;;;9.73;;
22894;SDS011;11614;52.494;6.976;2023-01-26T11:13:05;23.23;;;8.50;;
22894;SDS011;11614;52.494;6.976;2023-01-26T11:15:34;19.43;;;6.10;;
22894;SDS011;11614;52.494;6.976;2023-01-26T11:18:01;22.23;;;7.23;;
22894;SDS011;11614;52.494;6.976;2023-01-26T11:28:30;22.93;;;7.07;;
22894;SDS011;11614;52.494;6.976;2023-01-26T11:31:02;21.23;;;7.40;;
22894;SDS011;11614;52.494;6.976;2023-01-26T11:33:37;21.33;;;7.47;;
22894;SDS011;11614;52.494;6.976;2023-01-26T11:36:11;24.03;;;6.90;;
22894;SDS011;11614;52.494;6.976;2023-01-26T11:38:40;17.20;;;6.17;;
22894;SDS011;11614;52.494;6.976;2023-01-26T11:57:16;21.50;;;7.07;;
22894;SDS011;11614;52.494;6.976;2023-01-26T11:59:45;14.20;;;5.30;;
22894;SDS011;11614;52.494;6.976;2023-01-26T12:04:42;16.47;;;6.10;;
22894;SDS011;11614;52.494;6.976;2023-01-26T12:07:14;22.97;;;5.90;;
22894;SDS011;11614;52.494;6.976;2023-01-26T12:09:42;16.73;;;5.97;;
22894;SDS011;11614;52.494;6.976;2023-01-26T12:12:10;20.13;;;6.53;;
22894;SDS011;11614;52.494;6.976;2023-01-26T12:14:48;26.10;;;8.83;;
22894;SDS011;11614;52.494;6.976;2023-01-26T12:17:24;14.87;;;4.83;;
22894;SDS011;11614;52.494;6.976;2023-01-26T12:19:54;13.50;;;4.47;;
22894;SDS011;11614;52.494;6.976;2023-01-26T12:22:35;14.80;;;3.90;;
22894;SDS011;11614;52.494;6.976;2023-01-26T12:25:18;14.33;;;4.87;;
22894;SDS011;11614;52.494;6.976;2023-01-26T12:33:00;13.70;;;3.67;;
22894;SDS011;11614;52.494;6.976;2023-01-26T12:38:19;21.27;;;4.10;;
22894;SDS011;11614;52.494;6.976;2023-01-26T12:43:33;16.47;;;3.57;;
22894;SDS011;11614;52.494;6.976;2023-01-26T12:46:01;12.43;;;3.97;;
22894;SDS011;11614;52.494;6.976;2023-01-26T12:51:08;30.60;;;7.53;;
22894;SDS011;11614;52.494;6.976;2023-01-26T12:53:43;6.57;;;2.13;;
22894;SDS011;11614;52.494;6.976;2023-01-26T12:56:32;17.10;;;4.10;;
22894;SDS011;11614;52.494;6.976;2023-01-26T12:59:12;14.20;;;3.33;;
22894;SDS011;11614;52.494;6.976;2023-01-26T13:01:40;9.07;;;2.07;;
22894;SDS011;11614;52.494;6.976;2023-01-26T13:04:10;9.43;;;2.07;;
22894;SDS011;11614;52.494;6.976;2023-01-26T13:06:37;7.20;;;1.23;;
22894;SDS011;11614;52.494;6.976;2023-01-26T13:09:20;13.57;;;3.03;;
22894;SDS011;11614;52.494;6.976;2023-01-26T13:11:53;13.83;;;2.37;;
22894;SDS011;11614;52.494;6.976;2023-01-26T13:16:49;16.90;;;3.17;;
22894;SDS011;11614;52.494;6.976;2023-01-26T13:21:59;8.53;;;1.90;;
22894;SDS011;11614;52.494;6.976;2023-01-26T13:26:52;8.67;;;2.13;;
22894;SDS011;11614;52.494;6.976;2023-01-26T13:34:40;12.33;;;2.57;;
22894;SDS011;11614;52.494;6.976;2023-01-26T13:37:10;12.93;;;2.37;;
22894;SDS011;11614;52.494;6.976;2023-01-26T13:39:37;12.90;;;2.47;;
22894;SDS011;11614;52.494;6.976;2023-01-26T13:42:13;16.00;;;3.20;;
22894;SDS011;11614;52.494;6.976;2023-01-26T13:44:42;6.43;;;1.10;;
22894;SDS011;11614;52.494;6.976;2023-01-26T13:47:14;11.20;;;2.37;;
22894;SDS011;11614;52.494;6.976;2023-01-26T13:49:42;11.03;;;2.47;;
22894;SDS011;11614;52.494;6.976;2023-01-26T13:52:18;14.37;;;2.97;;
22894;SDS011;11614;52.494;6.976;2023-01-26T13:54:44;7.57;;;1.20;;
22894;SDS011;11614;52.494;6.976;2023-01-26T13:57:11;8.80;;;1.73;;
22894;SDS011;11614;52.494;6.976;2023-01-26T13:59:51;8.30;;;1.63;;
22894;SDS011;11614;52.494;6.976;2023-01-26T14:02:24;13.57;;;2.43;;
22894;SDS011;11614;52.494;6.976;2023-01-26T14:04:51;11.87;;;2.07;;
22894;SDS011;11614;52.494;6.976;2023-01-26T14:07:19;12.47;;;2.17;;
22894;SDS011;11614;52.494;6.976;2023-01-26T14:09:48;10.73;;;1.37;;
22894;SDS011;11614;52.494;6.976;2023-01-26T14:12:19;17.87;;;3.33;;
22894;SDS011;11614;52.494;6.976;2023-01-26T14:14:47;15.50;;;2.70;;
22894;SDS011;11614;52.494;6.976;2023-01-26T14:17:27;12.53;;;2.67;;
22894;SDS011;11614;52.494;6.976;2023-01-26T14:19:54;11.97;;;1.97;;
22894;SDS011;11614;52.494;6.976;2023-01-26T14:22:20;11.47;;;1.60;;
22894;SDS011;11614;52.494;6.976;2023-01-26T14:24:50;6.23;;;1.43;;
22894;SDS011;11614;52.494;6.976;2023-01-26T14:29:53;8.33;;;2.07;;
22894;SDS011;11614;52.494;6.976;2023-01-26T14:32:19;13.40;;;1.93;;
22894;SDS011;11614;52.494;6.976;2023-01-26T14:34:53;7.23;;;1.63;;
22894;SDS011;11614;52.494;6.976;2023-01-26T14:37:19;11.43;;;2.17;;
22894;SDS011;11614;52.494;6.976;2023-01-26T14:39:45;11.63;;;3.13;;
22894;SDS011;11614;52.494;6.976;2023-01-26T14:42:15;10.13;;;2.47;;
22894;SDS011;11614;52.494;6.976;2023-01-26T14:44:42;9.40;;;2.23;;
22894;SDS011;11614;52.494;6.976;2023-01-26T14:47:14;11.93;;;2.20;;
22894;SDS011;11614;52.494;6.976;2023-01-26T14:49:45;9.20;;;1.63;;
22894;SDS011;11614;52.494;6.976;2023-01-26T14:52:23;14.30;;;2.50;;
22894;SDS011;11614;52.494;6.976;2023-01-26T14:54:50;7.87;;;1.87;;
22894;SDS011;11614;52.494;6.976;2023-01-26T14:57:18;7.23;;;1.90;;
22894;SDS011;11614;52.494;6.976;2023-01-26T14:59:46;9.43;;;1.50;;
22894;SDS011;11614;52.494;6.976;2023-01-26T15:05:15;9.87;;;3.00;;
22894;SDS011;11614;52.494;6.976;2023-01-26T15:07:49;9.87;;;2.30;;
22894;SDS011;11614;52.494;6.976;2023-01-26T15:10:58;10.40;;;2.33;;
22894;SDS011;11614;52.494;6.976;2023-01-26T15:13:16;8.67;;;2.17;;
22894;SDS011;11614;52.494;6.976;2023-01-26T15:15:44;14.53;;;2.57;;
22894;SDS011;11614;52.494;6.976;2023-01-26T15:18:20;5.87;;;1.57;;
22894;SDS011;11614;52.494;6.976;2023-01-26T15:25:47;9.00;;;1.27;;
22894;SDS011;11614;52.494;6.976;2023-01-26T15:28:17;6.43;;;0.77;;
22894;SDS011;11614;52.494;6.976;2023-01-26T15:30:47;7.87;;;1.23;;
22894;SDS011;11614;52.494;6.976;2023-01-26T15:33:34;9.50;;;1.80;;
22894;SDS011;11614;52.494;6.976;2023-01-26T15:36:02;7.87;;;1.20;;
22894;SDS011;11614;52.494;6.976;2023-01-26T15:38:28;4.13;;;0.93;;
22894;SDS011;11614;52.494;6.976;2023-01-26T15:40:54;4.40;;;1.10;;
22894;SDS011;11614;52.494;6.976;2023-01-26T15:43:20;6.10;;;1.37;;
22894;SDS011;11614;52.494;6.976;2023-01-26T15:45:49;5.00;;;1.00;;
22894;SDS011;11614;52.494;6.976;2023-01-26T15:48:16;5.23;;;1.27;;
22894;SDS011;11614;52.494;6.976;2023-01-26T15:50:42;5.63;;;1.30;;
22894;SDS011;11614;52.494;6.976;2023-01-26T15:53:16;6.77;;;1.10;;
22894;SDS011;11614;52.494;6.976;2023-01-26T15:55:44;6.70;;;1.23;;
22894;SDS011;11614;52.494;6.976;2023-01-26T15:58:10;11.33;;;1.90;;
22894;SDS011;11614;52.494;6.976;2023-01-26T16:00:36;6.43;;;1.10;;
22894;SDS011;11614;52.494;6.976;2023-01-26T16:03:04;7.33;;;1.17;;
22894;SDS011;11614;52.494;6.976;2023-01-26T16:05:31;7.40;;;1.30;;
22894;SDS011;11614;52.494;6.976;2023-01-26T16:07:57;8.57;;;1.40;;
22894;SDS011;11614;52.494;6.976;2023-01-26T16:10:24;4.03;;;1.23;;
22894;SDS011;11614;52.494;6.976;2023-01-26T16:12:50;6.73;;;1.43;;
22894;SDS011;11614;52.494;6.976;2023-01-26T16:15:26;6.57;;;1.47;;
22894;SDS011;11614;52.494;6.976;2023-01-26T16:17:54;10.67;;;2.67;;